sensor_id;sensor_type;location;lat;lon;timestamp;P1;durP1;ratioP1;P2;durP2;ratioP2
52940;SDS011;62001;53.366;6.636;2023-02-23T00:01:38;87.60;;;43.55;;
52940;SDS011;62001;53.366;6.636;2023-02-23T00:04:05;99.32;;;44.72;;
52940;SDS011;62001;53.366;6.636;2023-02-23T00:06:33;93.80;;;44.17;;
52940;SDS011;62001;53.366;6.636;2023-02-23T00:09:00;93.05;;;44.83;;
52940;SDS011;62001;53.366;6.636;2023-02-23T00:11:26;92.32;;;46.35;;
52940;SDS011;62001;53.366;6.636;2023-02-23T00:13:52;94.95;;;45.83;;
52940;SDS011;62001;53.366;6.636;2023-02-23T00:16:24;90.05;;;44.38;;
52940;SDS011;62001;53.366;6.636;2023-02-23T00:18:51;96.93;;;46.20;;
52940;SDS011;62001;53.366;6.636;2023-02-23T00:21:20;92.88;;;45.25;;
52940;SDS011;62001;53.366;6.636;2023-02-23T00:23:49;95.43;;;45.70;;
52940;SDS011;62001;53.366;6.636;2023-02-23T00:26:17;96.50;;;46.35;;
52940;SDS011;62001;53.366;6.636;2023-02-23T00:28:45;97.90;;;45.00;;
52940;SDS011;62001;53.366;6.636;2023-02-23T00:31:13;86.95;;;43.17;;
52940;SDS011;62001;53.366;6.636;2023-02-23T00:33:39;96.30;;;46.13;;
52940;SDS011;62001;53.366;6.636;2023-02-23T00:36:06;90.78;;;44.17;;
52940;SDS011;62001;53.366;6.636;2023-02-23T00:38:34;93.47;;;44.55;;
52940;SDS011;62001;53.366;6.636;2023-02-23T00:41:05;86.70;;;42.70;;
52940;SDS011;62001;53.366;6.636;2023-02-23T00:43:33;86.32;;;42.53;;
52940;SDS011;62001;53.366;6.636;2023-02-23T00:46:03;86.00;;;43.63;;
52940;SDS011;62001;53.366;6.636;2023-02-23T00:48:32;84.32;;;42.78;;
52940;SDS011;62001;53.366;6.636;2023-02-23T00:50:59;86.15;;;43.35;;
52940;SDS011;62001;53.366;6.636;2023-02-23T00:53:26;90.05;;;45.65;;
52940;SDS011;62001;53.366;6.636;2023-02-23T00:55:53;105.25;;;47.47;;
52940;SDS011;62001;53.366;6.636;2023-02-23T00:58:20;95.03;;;46.65;;
52940;SDS011;62001;53.366;6.636;2023-02-23T01:00:47;97.32;;;46.75;;
52940;SDS011;62001;53.366;6.636;2023-02-23T01:03:13;84.22;;;42.35;;
52940;SDS011;62001;53.366;6.636;2023-02-23T01:05:39;108.38;;;47.88;;
52940;SDS011;62001;53.366;6.636;2023-02-23T01:08:05;93.93;;;45.88;;
52940;SDS011;62001;53.366;6.636;2023-02-23T01:10:37;87.07;;;45.42;;
52940;SDS011;62001;53.366;6.636;2023-02-23T01:13:05;91.72;;;45.35;;
52940;SDS011;62001;53.366;6.636;2023-02-23T01:15:31;90.55;;;45.28;;
52940;SDS011;62001;53.366;6.636;2023-02-23T01:17:57;94.07;;;46.25;;
52940;SDS011;62001;53.366;6.636;2023-02-23T01:20:23;93.50;;;46.28;;
52940;SDS011;62001;53.366;6.636;2023-02-23T01:22:49;92.95;;;47.20;;
52940;SDS011;62001;53.366;6.636;2023-02-23T01:25:16;94.07;;;47.15;;
52940;SDS011;62001;53.366;6.636;2023-02-23T01:27:43;95.72;;;47.95;;
52940;SDS011;62001;53.366;6.636;2023-02-23T01:30:13;99.07;;;49.78;;
52940;SDS011;62001;53.366;6.636;2023-02-23T01:32:39;97.05;;;48.95;;
52940;SDS011;62001;53.366;6.636;2023-02-23T01:35:09;101.90;;;50.00;;
52940;SDS011;62001;53.366;6.636;2023-02-23T01:37:37;86.22;;;45.47;;
52940;SDS011;62001;53.366;6.636;2023-02-23T01:40:05;113.70;;;50.42;;
52940;SDS011;62001;53.366;6.636;2023-02-23T01:42:43;108.28;;;50.30;;
52940;SDS011;62001;53.366;6.636;2023-02-23T01:47:48;106.15;;;50.10;;
52940;SDS011;62001;53.366;6.636;2023-02-23T01:50:17;110.15;;;51.60;;
52940;SDS011;62001;53.366;6.636;2023-02-23T01:52:44;110.13;;;50.40;;
52940;SDS011;62001;53.366;6.636;2023-02-23T01:55:11;115.32;;;51.78;;
52940;SDS011;62001;53.366;6.636;2023-02-23T01:57:39;118.28;;;52.40;;
52940;SDS011;62001;53.366;6.636;2023-02-23T02:00:06;136.27;;;55.80;;
52940;SDS011;62001;53.366;6.636;2023-02-23T02:02:38;130.65;;;56.08;;
52940;SDS011;62001;53.366;6.636;2023-02-23T02:05:04;118.47;;;54.40;;
52940;SDS011;62001;53.366;6.636;2023-02-23T02:07:37;122.25;;;53.05;;
52940;SDS011;62001;53.366;6.636;2023-02-23T02:10:04;122.63;;;51.78;;
52940;SDS011;62001;53.366;6.636;2023-02-23T02:12:40;124.40;;;53.38;;
52940;SDS011;62001;53.366;6.636;2023-02-23T02:15:16;121.90;;;52.92;;
52940;SDS011;62001;53.366;6.636;2023-02-23T02:20:42;119.55;;;52.65;;
52940;SDS011;62001;53.366;6.636;2023-02-23T02:32:54;135.30;;;56.42;;
52940;SDS011;62001;53.366;6.636;2023-02-23T02:38:38;129.65;;;54.60;;
52940;SDS011;62001;53.366;6.636;2023-02-23T02:41:33;133.73;;;55.30;;
52940;SDS011;62001;53.366;6.636;2023-02-23T02:44:15;130.65;;;56.42;;
52940;SDS011;62001;53.366;6.636;2023-02-23T02:46:46;128.18;;;54.95;;
52940;SDS011;62001;53.366;6.636;2023-02-23T02:49:21;141.43;;;57.15;;
52940;SDS011;62001;53.366;6.636;2023-02-23T02:52:14;144.45;;;58.00;;
52940;SDS011;62001;53.366;6.636;2023-02-23T02:54:50;134.25;;;56.55;;
52940;SDS011;62001;53.366;6.636;2023-02-23T02:57:21;149.43;;;58.53;;
52940;SDS011;62001;53.366;6.636;2023-02-23T02:59:51;132.05;;;56.58;;
52940;SDS011;62001;53.366;6.636;2023-02-23T03:02:39;135.02;;;55.35;;
52940;SDS011;62001;53.366;6.636;2023-02-23T03:05:25;133.82;;;56.25;;
52940;SDS011;62001;53.366;6.636;2023-02-23T03:08:20;147.10;;;58.88;;
52940;SDS011;62001;53.366;6.636;2023-02-23T03:11:20;156.38;;;61.13;;
52940;SDS011;62001;53.366;6.636;2023-02-23T03:14:16;142.20;;;56.45;;
52940;SDS011;62001;53.366;6.636;2023-02-23T03:17:14;144.13;;;57.42;;
52940;SDS011;62001;53.366;6.636;2023-02-23T03:26:53;162.85;;;62.17;;
52940;SDS011;62001;53.366;6.636;2023-02-23T03:32:50;151.65;;;60.28;;
52940;SDS011;62001;53.366;6.636;2023-02-23T03:42:03;147.35;;;57.38;;
52940;SDS011;62001;53.366;6.636;2023-02-23T03:44:52;130.82;;;54.47;;
52940;SDS011;62001;53.366;6.636;2023-02-23T03:47:38;150.20;;;53.25;;
52940;SDS011;62001;53.366;6.636;2023-02-23T03:50:38;128.80;;;50.20;;
52940;SDS011;62001;53.366;6.636;2023-02-23T03:53:27;103.03;;;45.28;;
52940;SDS011;62001;53.366;6.636;2023-02-23T03:56:18;89.00;;;39.75;;
52940;SDS011;62001;53.366;6.636;2023-02-23T04:01:54;73.40;;;33.88;;
52940;SDS011;62001;53.366;6.636;2023-02-23T04:04:39;74.22;;;33.30;;
52940;SDS011;62001;53.366;6.636;2023-02-23T04:07:25;68.95;;;31.65;;
52940;SDS011;62001;53.366;6.636;2023-02-23T04:10:10;68.85;;;32.75;;
52940;SDS011;62001;53.366;6.636;2023-02-23T04:15:43;69.90;;;31.75;;
52940;SDS011;62001;53.366;6.636;2023-02-23T04:18:19;66.85;;;31.48;;
52940;SDS011;62001;53.366;6.636;2023-02-23T04:21:05;65.32;;;30.83;;
52940;SDS011;62001;53.366;6.636;2023-02-23T04:23:31;66.43;;;31.77;;
52940;SDS011;62001;53.366;6.636;2023-02-23T04:25:58;62.88;;;30.95;;
52940;SDS011;62001;53.366;6.636;2023-02-23T04:28:25;66.82;;;32.25;;
52940;SDS011;62001;53.366;6.636;2023-02-23T04:30:51;63.17;;;31.45;;
52940;SDS011;62001;53.366;6.636;2023-02-23T04:33:17;69.18;;;32.13;;
52940;SDS011;62001;53.366;6.636;2023-02-23T04:35:45;63.97;;;31.25;;
52940;SDS011;62001;53.366;6.636;2023-02-23T04:38:11;67.80;;;33.00;;
52940;SDS011;62001;53.366;6.636;2023-02-23T04:40:37;70.72;;;32.28;;
52940;SDS011;62001;53.366;6.636;2023-02-23T04:43:03;75.22;;;34.13;;
52940;SDS011;62001;53.366;6.636;2023-02-23T04:45:29;70.82;;;32.65;;
52940;SDS011;62001;53.366;6.636;2023-02-23T04:47:55;80.90;;;34.92;;
52940;SDS011;62001;53.366;6.636;2023-02-23T04:50:21;78.65;;;35.65;;
52940;SDS011;62001;53.366;6.636;2023-02-23T04:52:47;74.60;;;34.40;;
52940;SDS011;62001;53.366;6.636;2023-02-23T04:55:15;71.95;;;34.30;;
52940;SDS011;62001;53.366;6.636;2023-02-23T04:57:43;81.18;;;36.95;;
52940;SDS011;62001;53.366;6.636;2023-02-23T05:00:09;84.47;;;36.75;;
52940;SDS011;62001;53.366;6.636;2023-02-23T05:02:36;97.70;;;41.53;;
52940;SDS011;62001;53.366;6.636;2023-02-23T05:05:01;118.78;;;44.42;;
52940;SDS011;62001;53.366;6.636;2023-02-23T05:07:27;102.00;;;45.33;;
52940;SDS011;62001;53.366;6.636;2023-02-23T05:09:53;123.43;;;47.45;;
52940;SDS011;62001;53.366;6.636;2023-02-23T05:12:19;123.05;;;47.65;;
52940;SDS011;62001;53.366;6.636;2023-02-23T05:14:45;108.65;;;45.35;;
52940;SDS011;62001;53.366;6.636;2023-02-23T05:17:11;112.88;;;46.22;;
52940;SDS011;62001;53.366;6.636;2023-02-23T05:19:36;111.97;;;46.40;;
52940;SDS011;62001;53.366;6.636;2023-02-23T05:22:02;112.63;;;45.63;;
52940;SDS011;62001;53.366;6.636;2023-02-23T05:24:28;110.28;;;44.80;;
52940;SDS011;62001;53.366;6.636;2023-02-23T05:26:54;104.85;;;44.03;;
52940;SDS011;62001;53.366;6.636;2023-02-23T05:29:20;114.30;;;43.28;;
52940;SDS011;62001;53.366;6.636;2023-02-23T05:31:45;102.43;;;44.47;;
52940;SDS011;62001;53.366;6.636;2023-02-23T05:34:12;105.88;;;42.85;;
52940;SDS011;62001;53.366;6.636;2023-02-23T05:36:41;113.68;;;46.00;;
52940;SDS011;62001;53.366;6.636;2023-02-23T05:39:07;118.53;;;45.05;;
52940;SDS011;62001;53.366;6.636;2023-02-23T05:41:33;110.85;;;45.38;;
52940;SDS011;62001;53.366;6.636;2023-02-23T05:43:59;105.38;;;44.47;;
52940;SDS011;62001;53.366;6.636;2023-02-23T05:46:25;108.50;;;43.85;;
52940;SDS011;62001;53.366;6.636;2023-02-23T05:48:55;106.90;;;43.80;;
52940;SDS011;62001;53.366;6.636;2023-02-23T05:51:26;111.93;;;44.85;;
52940;SDS011;62001;53.366;6.636;2023-02-23T05:53:53;109.63;;;43.63;;
52940;SDS011;62001;53.366;6.636;2023-02-23T05:56:19;116.65;;;46.40;;
52940;SDS011;62001;53.366;6.636;2023-02-23T05:58:46;115.05;;;45.03;;
52940;SDS011;62001;53.366;6.636;2023-02-23T06:01:12;106.75;;;44.08;;
52940;SDS011;62001;53.366;6.636;2023-02-23T06:03:39;103.55;;;43.15;;
52940;SDS011;62001;53.366;6.636;2023-02-23T06:06:05;101.22;;;42.42;;
52940;SDS011;62001;53.366;6.636;2023-02-23T06:08:31;94.28;;;40.65;;
52940;SDS011;62001;53.366;6.636;2023-02-23T06:10:57;96.13;;;40.92;;
52940;SDS011;62001;53.366;6.636;2023-02-23T06:13:23;104.00;;;42.97;;
52940;SDS011;62001;53.366;6.636;2023-02-23T06:15:48;96.00;;;41.45;;
52940;SDS011;62001;53.366;6.636;2023-02-23T06:18:15;105.70;;;45.70;;
52940;SDS011;62001;53.366;6.636;2023-02-23T06:20:41;96.75;;;42.60;;
52940;SDS011;62001;53.366;6.636;2023-02-23T06:23:08;90.38;;;40.85;;
52940;SDS011;62001;53.366;6.636;2023-02-23T06:25:34;95.28;;;42.35;;
52940;SDS011;62001;53.366;6.636;2023-02-23T06:27:59;90.90;;;40.72;;
52940;SDS011;62001;53.366;6.636;2023-02-23T06:30:25;83.60;;;39.28;;
52940;SDS011;62001;53.366;6.636;2023-02-23T06:32:51;89.18;;;39.15;;
52940;SDS011;62001;53.366;6.636;2023-02-23T06:35:17;86.20;;;39.70;;
52940;SDS011;62001;53.366;6.636;2023-02-23T06:37:43;89.47;;;39.28;;
52940;SDS011;62001;53.366;6.636;2023-02-23T06:40:09;98.80;;;48.53;;
52940;SDS011;62001;53.366;6.636;2023-02-23T06:42:35;96.55;;;43.55;;
52940;SDS011;62001;53.366;6.636;2023-02-23T06:45:01;93.85;;;40.58;;
52940;SDS011;62001;53.366;6.636;2023-02-23T06:47:28;93.43;;;40.05;;
52940;SDS011;62001;53.366;6.636;2023-02-23T06:49:54;84.38;;;38.08;;
52940;SDS011;62001;53.366;6.636;2023-02-23T06:52:19;85.90;;;36.28;;
52940;SDS011;62001;53.366;6.636;2023-02-23T06:54:45;96.97;;;39.00;;
52940;SDS011;62001;53.366;6.636;2023-02-23T06:57:12;87.82;;;36.88;;
52940;SDS011;62001;53.366;6.636;2023-02-23T06:59:38;81.90;;;37.25;;
52940;SDS011;62001;53.366;6.636;2023-02-23T07:02:04;77.25;;;34.78;;
52940;SDS011;62001;53.366;6.636;2023-02-23T07:04:30;76.05;;;34.63;;
52940;SDS011;62001;53.366;6.636;2023-02-23T07:06:56;78.70;;;35.25;;
52940;SDS011;62001;53.366;6.636;2023-02-23T07:09:22;72.10;;;32.15;;
52940;SDS011;62001;53.366;6.636;2023-02-23T07:11:48;71.30;;;31.00;;
52940;SDS011;62001;53.366;6.636;2023-02-23T07:14:14;63.72;;;30.48;;
52940;SDS011;62001;53.366;6.636;2023-02-23T07:16:40;58.22;;;28.75;;
52940;SDS011;62001;53.366;6.636;2023-02-23T07:19:07;56.00;;;28.33;;
52940;SDS011;62001;53.366;6.636;2023-02-23T07:21:32;54.65;;;27.02;;
52940;SDS011;62001;53.366;6.636;2023-02-23T07:23:59;49.65;;;24.85;;
52940;SDS011;62001;53.366;6.636;2023-02-23T07:26:27;50.83;;;24.95;;
52940;SDS011;62001;53.366;6.636;2023-02-23T07:28:53;46.47;;;24.38;;
52940;SDS011;62001;53.366;6.636;2023-02-23T07:31:18;47.97;;;24.45;;
52940;SDS011;62001;53.366;6.636;2023-02-23T07:33:44;49.70;;;23.80;;
52940;SDS011;62001;53.366;6.636;2023-02-23T07:36:10;44.08;;;22.83;;
52940;SDS011;62001;53.366;6.636;2023-02-23T07:38:36;48.63;;;23.52;;
52940;SDS011;62001;53.366;6.636;2023-02-23T07:41:02;49.50;;;24.48;;
52940;SDS011;62001;53.366;6.636;2023-02-23T07:43:29;50.85;;;24.88;;
52940;SDS011;62001;53.366;6.636;2023-02-23T07:45:58;57.00;;;27.83;;
52940;SDS011;62001;53.366;6.636;2023-02-23T07:48:25;53.95;;;29.20;;
52940;SDS011;62001;53.366;6.636;2023-02-23T07:50:51;61.92;;;30.67;;
52940;SDS011;62001;53.366;6.636;2023-02-23T07:53:17;61.63;;;30.25;;
52940;SDS011;62001;53.366;6.636;2023-02-23T07:55:42;58.60;;;28.73;;
52940;SDS011;62001;53.366;6.636;2023-02-23T07:58:09;63.78;;;30.25;;
52940;SDS011;62001;53.366;6.636;2023-02-23T08:00:38;59.83;;;29.17;;
52940;SDS011;62001;53.366;6.636;2023-02-23T08:03:04;63.65;;;28.60;;
52940;SDS011;62001;53.366;6.636;2023-02-23T08:05:30;63.47;;;31.30;;
52940;SDS011;62001;53.366;6.636;2023-02-23T08:07:57;66.80;;;30.88;;
52940;SDS011;62001;53.366;6.636;2023-02-23T08:10:24;62.65;;;30.00;;
52940;SDS011;62001;53.366;6.636;2023-02-23T08:12:50;71.38;;;32.50;;
52940;SDS011;62001;53.366;6.636;2023-02-23T08:15:16;74.97;;;33.20;;
52940;SDS011;62001;53.366;6.636;2023-02-23T08:17:42;80.25;;;34.17;;
52940;SDS011;62001;53.366;6.636;2023-02-23T08:20:08;78.72;;;32.88;;
52940;SDS011;62001;53.366;6.636;2023-02-23T08:22:34;71.65;;;34.47;;
52940;SDS011;62001;53.366;6.636;2023-02-23T08:25:00;79.30;;;33.95;;
52940;SDS011;62001;53.366;6.636;2023-02-23T08:27:32;76.78;;;33.67;;
52940;SDS011;62001;53.366;6.636;2023-02-23T08:29:58;77.75;;;33.95;;
52940;SDS011;62001;53.366;6.636;2023-02-23T08:32:28;80.55;;;33.78;;
52940;SDS011;62001;53.366;6.636;2023-02-23T08:34:59;82.65;;;37.35;;
52940;SDS011;62001;53.366;6.636;2023-02-23T08:37:27;84.60;;;36.35;;
52940;SDS011;62001;53.366;6.636;2023-02-23T08:39:54;82.85;;;36.88;;
52940;SDS011;62001;53.366;6.636;2023-02-23T08:42:20;80.53;;;35.22;;
52940;SDS011;62001;53.366;6.636;2023-02-23T08:44:46;80.75;;;36.33;;
52940;SDS011;62001;53.366;6.636;2023-02-23T08:47:14;83.38;;;37.33;;
52940;SDS011;62001;53.366;6.636;2023-02-23T08:49:41;83.72;;;36.33;;
52940;SDS011;62001;53.366;6.636;2023-02-23T08:52:07;85.63;;;36.95;;
52940;SDS011;62001;53.366;6.636;2023-02-23T08:54:33;83.78;;;36.17;;
52940;SDS011;62001;53.366;6.636;2023-02-23T08:56:59;86.40;;;38.25;;
52940;SDS011;62001;53.366;6.636;2023-02-23T08:59:24;89.18;;;37.55;;
52940;SDS011;62001;53.366;6.636;2023-02-23T09:01:51;96.32;;;38.78;;
52940;SDS011;62001;53.366;6.636;2023-02-23T09:04:17;89.43;;;38.13;;
52940;SDS011;62001;53.366;6.636;2023-02-23T09:06:43;98.78;;;40.38;;
52940;SDS011;62001;53.366;6.636;2023-02-23T09:09:11;99.40;;;40.60;;
52940;SDS011;62001;53.366;6.636;2023-02-23T09:11:36;93.95;;;39.67;;
52940;SDS011;62001;53.366;6.636;2023-02-23T09:14:02;97.38;;;40.15;;
52940;SDS011;62001;53.366;6.636;2023-02-23T09:16:28;84.90;;;35.22;;
52940;SDS011;62001;53.366;6.636;2023-02-23T09:18:54;80.35;;;35.50;;
52940;SDS011;62001;53.366;6.636;2023-02-23T09:21:20;84.15;;;36.53;;
52940;SDS011;62001;53.366;6.636;2023-02-23T09:23:49;81.75;;;34.70;;
52940;SDS011;62001;53.366;6.636;2023-02-23T09:26:17;89.13;;;36.95;;
52940;SDS011;62001;53.366;6.636;2023-02-23T09:28:43;83.78;;;37.10;;
52940;SDS011;62001;53.366;6.636;2023-02-23T09:31:11;88.90;;;39.08;;
52940;SDS011;62001;53.366;6.636;2023-02-23T09:33:40;97.53;;;40.28;;
52940;SDS011;62001;53.366;6.636;2023-02-23T09:36:06;97.43;;;40.17;;
52940;SDS011;62001;53.366;6.636;2023-02-23T09:38:37;93.60;;;39.08;;
52940;SDS011;62001;53.366;6.636;2023-02-23T09:41:03;96.07;;;39.13;;
52940;SDS011;62001;53.366;6.636;2023-02-23T09:44:35;94.68;;;38.70;;
52940;SDS011;62001;53.366;6.636;2023-02-23T09:46:48;95.93;;;38.97;;
52940;SDS011;62001;53.366;6.636;2023-02-23T09:49:36;90.32;;;37.95;;
52940;SDS011;62001;53.366;6.636;2023-02-23T09:54:34;101.43;;;37.28;;
52940;SDS011;62001;53.366;6.636;2023-02-23T09:57:01;107.22;;;39.67;;
52940;SDS011;62001;53.366;6.636;2023-02-23T09:59:31;92.68;;;33.58;;
52940;SDS011;62001;53.366;6.636;2023-02-23T10:02:04;93.57;;;32.20;;
52940;SDS011;62001;53.366;6.636;2023-02-23T10:04:46;96.38;;;32.08;;
52940;SDS011;62001;53.366;6.636;2023-02-23T10:07:28;91.32;;;32.47;;
52940;SDS011;62001;53.366;6.636;2023-02-23T10:15:25;95.95;;;33.03;;
52940;SDS011;62001;53.366;6.636;2023-02-23T10:18:13;93.30;;;32.97;;
52940;SDS011;62001;53.366;6.636;2023-02-23T10:26:05;79.50;;;29.38;;
52940;SDS011;62001;53.366;6.636;2023-02-23T10:28:34;88.22;;;31.02;;
52940;SDS011;62001;53.366;6.636;2023-02-23T10:31:03;86.13;;;30.90;;
52940;SDS011;62001;53.366;6.636;2023-02-23T10:33:43;93.43;;;32.88;;
52940;SDS011;62001;53.366;6.636;2023-02-23T10:36:11;95.43;;;33.17;;
52940;SDS011;62001;53.366;6.636;2023-02-23T10:38:40;100.32;;;32.00;;
52940;SDS011;62001;53.366;6.636;2023-02-23T10:41:06;90.53;;;32.80;;
52940;SDS011;62001;53.366;6.636;2023-02-23T10:43:37;92.55;;;33.55;;
52940;SDS011;62001;53.366;6.636;2023-02-23T10:46:03;86.05;;;30.85;;
52940;SDS011;62001;53.366;6.636;2023-02-23T10:48:33;86.43;;;30.98;;
52940;SDS011;62001;53.366;6.636;2023-02-23T10:51:12;91.70;;;30.55;;
52940;SDS011;62001;53.366;6.636;2023-02-23T10:53:51;81.13;;;29.35;;
52940;SDS011;62001;53.366;6.636;2023-02-23T10:56:17;95.25;;;31.58;;
52940;SDS011;62001;53.366;6.636;2023-02-23T10:58:48;85.80;;;30.05;;
52940;SDS011;62001;53.366;6.636;2023-02-23T11:04:17;94.73;;;31.00;;
52940;SDS011;62001;53.366;6.636;2023-02-23T11:06:50;92.38;;;32.67;;
52940;SDS011;62001;53.366;6.636;2023-02-23T11:09:39;94.72;;;33.15;;
52940;SDS011;62001;53.366;6.636;2023-02-23T11:17:26;106.85;;;34.80;;
52940;SDS011;62001;53.366;6.636;2023-02-23T11:19:57;113.88;;;36.85;;
52940;SDS011;62001;53.366;6.636;2023-02-23T11:22:29;116.38;;;37.05;;
52940;SDS011;62001;53.366;6.636;2023-02-23T11:24:58;122.80;;;38.33;;
52940;SDS011;62001;53.366;6.636;2023-02-23T11:27:29;121.32;;;39.20;;
52940;SDS011;62001;53.366;6.636;2023-02-23T11:29:55;136.38;;;41.97;;
52940;SDS011;62001;53.366;6.636;2023-02-23T11:32:30;129.75;;;39.08;;
52940;SDS011;62001;53.366;6.636;2023-02-23T11:35:39;139.55;;;42.58;;
52940;SDS011;62001;53.366;6.636;2023-02-23T11:37:59;138.77;;;43.20;;
52940;SDS011;62001;53.366;6.636;2023-02-23T11:40:56;150.95;;;41.67;;
52940;SDS011;62001;53.366;6.636;2023-02-23T11:43:26;152.50;;;43.92;;
52940;SDS011;62001;53.366;6.636;2023-02-23T11:45:53;158.85;;;47.25;;
52940;SDS011;62001;53.366;6.636;2023-02-23T11:48:30;157.90;;;44.58;;
52940;SDS011;62001;53.366;6.636;2023-02-23T11:50:59;156.90;;;46.88;;
52940;SDS011;62001;53.366;6.636;2023-02-23T11:53:29;153.50;;;44.35;;
52940;SDS011;62001;53.366;6.636;2023-02-23T11:56:09;149.95;;;43.25;;
52940;SDS011;62001;53.366;6.636;2023-02-23T12:01:08;161.18;;;44.53;;
52940;SDS011;62001;53.366;6.636;2023-02-23T12:03:56;153.27;;;42.83;;
52940;SDS011;62001;53.366;6.636;2023-02-23T12:06:29;159.68;;;46.25;;
52940;SDS011;62001;53.366;6.636;2023-02-23T12:12:01;166.80;;;46.55;;
52940;SDS011;62001;53.366;6.636;2023-02-23T12:17:37;160.07;;;45.88;;
52940;SDS011;62001;53.366;6.636;2023-02-23T12:22:45;154.70;;;45.53;;
52940;SDS011;62001;53.366;6.636;2023-02-23T12:25:48;146.75;;;42.63;;
52940;SDS011;62001;53.366;6.636;2023-02-23T12:34:57;94.03;;;29.25;;
52940;SDS011;62001;53.366;6.636;2023-02-23T12:39:53;28.02;;;7.97;;
52940;SDS011;62001;53.366;6.636;2023-02-23T12:45:00;49.15;;;8.25;;
52940;SDS011;62001;53.366;6.636;2023-02-23T12:47:38;60.80;;;8.40;;
52940;SDS011;62001;53.366;6.636;2023-02-23T12:56:08;55.53;;;8.88;;
52940;SDS011;62001;53.366;6.636;2023-02-23T13:12:18;77.77;;;10.03;;
52940;SDS011;62001;53.366;6.636;2023-02-23T13:19:55;81.70;;;10.73;;
52940;SDS011;62001;53.366;6.636;2023-02-23T13:24:52;71.50;;;9.40;;
52940;SDS011;62001;53.366;6.636;2023-02-23T13:27:22;63.37;;;9.30;;
52940;SDS011;62001;53.366;6.636;2023-02-23T13:29:52;52.97;;;9.33;;
52940;SDS011;62001;53.366;6.636;2023-02-23T13:32:24;62.23;;;9.43;;
52940;SDS011;62001;53.366;6.636;2023-02-23T13:34:57;58.17;;;9.03;;
52940;SDS011;62001;53.366;6.636;2023-02-23T13:37:29;64.03;;;9.50;;
52940;SDS011;62001;53.366;6.636;2023-02-23T13:53:27;50.83;;;7.87;;
52940;SDS011;62001;53.366;6.636;2023-02-23T13:55:53;51.47;;;7.97;;
52940;SDS011;62001;53.366;6.636;2023-02-23T13:58:28;45.63;;;7.33;;
52940;SDS011;62001;53.366;6.636;2023-02-23T14:01:02;42.23;;;7.10;;
52940;SDS011;62001;53.366;6.636;2023-02-23T14:03:40;53.13;;;7.53;;
52940;SDS011;62001;53.366;6.636;2023-02-23T14:06:12;61.33;;;8.27;;
52940;SDS011;62001;53.366;6.636;2023-02-23T14:08:40;58.30;;;7.23;;
52940;SDS011;62001;53.366;6.636;2023-02-23T14:11:09;39.90;;;5.97;;
52940;SDS011;62001;53.366;6.636;2023-02-23T14:13:58;41.40;;;6.83;;
52940;SDS011;62001;53.366;6.636;2023-02-23T14:16:25;37.40;;;6.33;;
52940;SDS011;62001;53.366;6.636;2023-02-23T14:21:56;49.90;;;7.20;;
52940;SDS011;62001;53.366;6.636;2023-02-23T14:24:26;49.30;;;6.93;;
52940;SDS011;62001;53.366;6.636;2023-02-23T14:30:06;37.13;;;6.27;;
52940;SDS011;62001;53.366;6.636;2023-02-23T14:32:38;51.27;;;6.67;;
52940;SDS011;62001;53.366;6.636;2023-02-23T14:35:04;49.63;;;7.67;;
52940;SDS011;62001;53.366;6.636;2023-02-23T14:37:45;44.73;;;6.80;;
52940;SDS011;62001;53.366;6.636;2023-02-23T14:40:23;32.87;;;6.47;;
52940;SDS011;62001;53.366;6.636;2023-02-23T14:42:56;41.23;;;6.80;;
52940;SDS011;62001;53.366;6.636;2023-02-23T14:45:26;42.63;;;6.27;;
52940;SDS011;62001;53.366;6.636;2023-02-23T14:53:51;40.00;;;6.13;;
52940;SDS011;62001;53.366;6.636;2023-02-23T14:59:35;39.65;;;5.65;;
52940;SDS011;62001;53.366;6.636;2023-02-23T15:02:16;44.23;;;5.90;;
52940;SDS011;62001;53.366;6.636;2023-02-23T15:04:45;39.67;;;5.57;;
52940;SDS011;62001;53.366;6.636;2023-02-23T15:07:53;44.23;;;6.00;;
52940;SDS011;62001;53.366;6.636;2023-02-23T15:10:21;37.80;;;4.87;;
52940;SDS011;62001;53.366;6.636;2023-02-23T15:12:51;36.83;;;5.73;;
52940;SDS011;62001;53.366;6.636;2023-02-23T15:15:19;38.77;;;5.73;;
52940;SDS011;62001;53.366;6.636;2023-02-23T15:17:51;30.73;;;5.28;;
52940;SDS011;62001;53.366;6.636;2023-02-23T15:20:26;35.23;;;5.23;;
52940;SDS011;62001;53.366;6.636;2023-02-23T15:22:59;32.93;;;5.47;;
52940;SDS011;62001;53.366;6.636;2023-02-23T15:25:35;34.63;;;5.10;;
52940;SDS011;62001;53.366;6.636;2023-02-23T15:28:38;33.57;;;5.30;;
52940;SDS011;62001;53.366;6.636;2023-02-23T15:31:00;30.17;;;4.70;;
52940;SDS011;62001;53.366;6.636;2023-02-23T15:36:28;36.43;;;5.50;;
52940;SDS011;62001;53.366;6.636;2023-02-23T15:38:59;40.83;;;5.30;;
52940;SDS011;62001;53.366;6.636;2023-02-23T15:46:54;30.58;;;5.20;;
52940;SDS011;62001;53.366;6.636;2023-02-23T15:49:26;34.33;;;5.33;;
52940;SDS011;62001;53.366;6.636;2023-02-23T15:52:00;33.73;;;4.97;;
52940;SDS011;62001;53.366;6.636;2023-02-23T15:54:41;22.10;;;4.33;;
52940;SDS011;62001;53.366;6.636;2023-02-23T15:57:16;28.47;;;4.53;;
52940;SDS011;62001;53.366;6.636;2023-02-23T15:59:45;23.47;;;3.77;;
52940;SDS011;62001;53.366;6.636;2023-02-23T16:02:13;23.83;;;3.93;;
52940;SDS011;62001;53.366;6.636;2023-02-23T16:04:43;21.43;;;4.03;;
52940;SDS011;62001;53.366;6.636;2023-02-23T16:09:46;21.50;;;3.77;;
52940;SDS011;62001;53.366;6.636;2023-02-23T16:12:35;26.23;;;4.07;;
52940;SDS011;62001;53.366;6.636;2023-02-23T16:15:02;32.93;;;4.07;;
52940;SDS011;62001;53.366;6.636;2023-02-23T16:20:12;29.10;;;4.07;;
52940;SDS011;62001;53.366;6.636;2023-02-23T16:22:41;24.73;;;3.77;;
52940;SDS011;62001;53.366;6.636;2023-02-23T16:27:37;24.57;;;4.40;;
52940;SDS011;62001;53.366;6.636;2023-02-23T16:33:39;24.87;;;4.27;;
52940;SDS011;62001;53.366;6.636;2023-02-23T16:38:39;34.60;;;3.93;;
52940;SDS011;62001;53.366;6.636;2023-02-23T16:41:25;19.00;;;3.13;;
52940;SDS011;62001;53.366;6.636;2023-02-23T16:43:54;26.20;;;3.63;;
52940;SDS011;62001;53.366;6.636;2023-02-23T16:46:24;26.92;;;3.90;;
52940;SDS011;62001;53.366;6.636;2023-02-23T16:48:53;26.75;;;3.60;;
52940;SDS011;62001;53.366;6.636;2023-02-23T16:51:20;20.77;;;3.53;;
52940;SDS011;62001;53.366;6.636;2023-02-23T16:53:49;23.03;;;3.67;;
52940;SDS011;62001;53.366;6.636;2023-02-23T16:56:18;25.90;;;3.50;;
52940;SDS011;62001;53.366;6.636;2023-02-23T17:01:13;17.00;;;2.70;;
52940;SDS011;62001;53.366;6.636;2023-02-23T17:03:41;22.63;;;3.00;;
52940;SDS011;62001;53.366;6.636;2023-02-23T17:06:08;18.30;;;2.80;;
52940;SDS011;62001;53.366;6.636;2023-02-23T17:08:35;17.93;;;2.90;;
52940;SDS011;62001;53.366;6.636;2023-02-23T17:11:01;15.83;;;2.77;;
52940;SDS011;62001;53.366;6.636;2023-02-23T17:13:29;28.50;;;3.17;;
52940;SDS011;62001;53.366;6.636;2023-02-23T17:16:03;15.43;;;2.70;;
52940;SDS011;62001;53.366;6.636;2023-02-23T17:18:34;19.53;;;3.30;;
52940;SDS011;62001;53.366;6.636;2023-02-23T17:21:06;16.40;;;2.97;;
52940;SDS011;62001;53.366;6.636;2023-02-23T17:23:34;23.47;;;3.00;;
52940;SDS011;62001;53.366;6.636;2023-02-23T17:26:18;19.90;;;2.83;;
52940;SDS011;62001;53.366;6.636;2023-02-23T17:28:47;22.37;;;3.20;;